createdAt,value
2019-01-08T00:01:50.497Z,20.88
2019-01-08T00:06:53.965Z,20.87
2019-01-08T00:11:57.428Z,20.88
2019-01-08T00:17:00.986Z,20.88
2019-01-08T00:22:04.744Z,20.87
2019-01-08T00:27:08.188Z,20.86
2019-01-08T00:32:11.655Z,20.86
2019-01-08T00:37:15.118Z,20.86
2019-01-08T00:42:18.579Z,20.86
2019-01-08T00:47:22.040Z,20.85
2019-01-08T00:52:25.503Z,20.85
2019-01-08T00:57:28.968Z,20.84
2019-01-08T01:02:32.424Z,20.84
2019-01-08T01:07:35.874Z,20.83
2019-01-08T01:12:39.329Z,20.84
2019-01-08T01:17:42.786Z,20.83
2019-01-08T01:22:46.265Z,20.83
2019-01-08T01:27:49.728Z,20.82
2019-01-08T01:32:53.193Z,20.81
2019-01-08T01:37:56.649Z,20.81
2019-01-08T01:43:00.117Z,20.82
2019-01-08T01:48:03.573Z,20.81
2019-01-08T01:53:07.030Z,20.81
2019-01-08T01:58:10.485Z,20.80
2019-01-08T02:03:13.941Z,20.80
2019-01-08T02:08:17.401Z,20.79
2019-01-08T02:13:20.857Z,20.80
2019-01-08T02:18:24.321Z,20.79
2019-01-08T02:23:27.781Z,20.80
2019-01-08T02:28:31.240Z,20.78
2019-01-08T02:33:34.697Z,20.79
2019-01-08T02:38:38.159Z,20.78
2019-01-08T02:43:41.618Z,20.77
2019-01-08T02:48:45.087Z,20.77
2019-01-08T02:53:48.548Z,20.78
2019-01-08T02:58:52.005Z,20.77
2019-01-08T03:03:55.472Z,20.78
2019-01-08T03:08:58.925Z,20.78
2019-01-08T03:14:02.452Z,20.77
2019-01-08T03:19:05.917Z,20.76
2019-01-08T03:24:09.377Z,20.77
2019-01-08T03:29:12.833Z,20.76
2019-01-08T03:34:16.289Z,20.75
2019-01-08T03:39:19.751Z,20.75
2019-01-08T03:44:23.205Z,20.75
2019-01-08T03:49:26.664Z,20.76
2019-01-08T03:54:30.117Z,20.75
2019-01-08T03:59:41.737Z,20.74
2019-01-08T04:04:38.757Z,20.74
2019-01-08T04:09:42.302Z,20.75
2019-01-08T04:14:45.759Z,20.74
2019-01-08T04:19:49.229Z,20.74
2019-01-08T04:24:52.690Z,20.74
2019-01-08T04:29:56.152Z,20.75
2019-01-08T04:34:59.609Z,20.74
2019-01-08T04:40:03.158Z,20.74
2019-01-08T04:45:06.634Z,20.74
2019-01-08T04:50:10.109Z,20.73
2019-01-08T04:55:13.573Z,20.77
2019-01-08T05:00:17.037Z,20.78
2019-01-08T05:05:20.502Z,20.79
2019-01-08T05:10:23.963Z,20.79
2019-01-08T05:15:27.421Z,20.80
2019-01-08T05:20:30.884Z,20.81
2019-01-08T05:25:34.341Z,20.82
2019-01-08T05:30:37.806Z,20.83
2019-01-08T05:35:41.437Z,20.84
2019-01-08T05:40:44.896Z,20.85
2019-01-08T05:45:48.358Z,20.86
2019-01-08T05:50:51.833Z,20.86
2019-01-08T05:55:55.286Z,20.85
2019-01-08T06:01:00.277Z,20.85
2019-01-08T06:06:03.738Z,20.83
2019-01-08T06:11:07.195Z,20.84
2019-01-08T06:16:10.650Z,20.84
2019-01-08T06:21:14.109Z,20.85
2019-01-08T06:26:17.565Z,20.86
2019-01-08T06:31:22.687Z,20.86
2019-01-08T06:36:26.402Z,20.87
2019-01-08T06:41:29.838Z,20.87
2019-01-08T06:46:33.300Z,20.86
2019-01-08T06:51:36.762Z,20.85
2019-01-08T06:56:40.217Z,20.85
2019-01-08T07:01:43.673Z,20.85
2019-01-08T07:06:47.139Z,20.84
2019-01-08T07:11:50.604Z,20.84
2019-01-08T07:16:54.064Z,20.84
2019-01-08T07:21:57.521Z,20.85
2019-01-08T07:27:00.988Z,20.86
2019-01-08T07:32:04.455Z,20.86
2019-01-08T07:37:07.905Z,20.85
2019-01-08T07:42:11.364Z,20.85
2019-01-08T07:47:14.822Z,20.85
2019-01-08T07:52:18.278Z,20.85
2019-01-08T07:57:21.739Z,20.84
2019-01-08T08:02:25.212Z,20.82
2019-01-08T08:07:28.664Z,20.72
2019-01-08T08:12:32.123Z,20.48
2019-01-08T08:17:35.592Z,20.23
2019-01-08T08:22:39.053Z,20.09
2019-01-08T08:27:42.520Z,20.13
2019-01-08T08:32:45.976Z,20.30
2019-01-08T08:37:49.441Z,20.39
2019-01-08T08:42:52.898Z,20.34
2019-01-08T08:47:56.365Z,20.51
2019-01-08T08:52:59.822Z,20.57
2019-01-08T08:58:03.276Z,20.60
2019-01-08T09:03:06.734Z,20.64
2019-01-08T09:08:10.195Z,20.68
2019-01-08T09:13:13.653Z,20.70
2019-01-08T09:18:17.114Z,20.73
2019-01-08T09:23:20.586Z,20.76
2019-01-08T09:28:24.042Z,20.76
2019-01-08T09:33:27.508Z,20.78
2019-01-08T09:38:30.961Z,20.79
2019-01-08T09:43:34.425Z,20.81
2019-01-08T09:48:37.882Z,20.83
2019-01-08T09:53:41.345Z,20.84
2019-01-08T09:58:44.803Z,20.84
2019-01-08T10:03:48.263Z,20.85
2019-01-08T10:08:51.722Z,20.85
2019-01-08T10:13:55.182Z,20.84
2019-01-08T10:18:58.643Z,20.84
2019-01-08T10:24:02.242Z,20.83
2019-01-08T10:29:05.742Z,20.84
2019-01-08T10:34:09.203Z,20.85
2019-01-08T10:39:12.664Z,20.74
2019-01-08T10:44:16.128Z,20.47
2019-01-08T10:49:19.592Z,20.20
2019-01-08T10:54:23.058Z,20.21
2019-01-08T10:59:26.895Z,20.31
2019-01-08T11:04:30.355Z,20.41
2019-01-08T11:09:33.821Z,20.47
2019-01-08T11:14:37.286Z,20.52
2019-01-08T11:19:40.743Z,20.57
2019-01-08T11:24:44.207Z,20.59
2019-01-08T11:29:47.668Z,20.64
2019-01-08T11:34:51.129Z,20.69
2019-01-08T11:39:54.589Z,20.70
2019-01-08T11:44:58.046Z,20.73
2019-01-08T11:50:01.510Z,20.76
2019-01-08T11:55:06.182Z,20.77
2019-01-08T12:00:11.846Z,20.77
2019-01-08T12:05:15.300Z,20.79
2019-01-08T12:10:18.766Z,20.81
2019-01-08T12:15:22.225Z,20.82
2019-01-08T12:20:25.692Z,20.83
2019-01-08T12:25:29.616Z,20.83
2019-01-08T12:30:33.193Z,20.84
2019-01-08T12:35:36.670Z,20.85
2019-01-08T12:40:40.121Z,20.85
2019-01-08T12:45:43.586Z,20.83
2019-01-08T12:50:47.053Z,20.83
2019-01-08T12:55:50.521Z,20.83
2019-01-08T13:00:53.992Z,20.82
2019-01-08T13:05:57.452Z,20.83
2019-01-08T13:11:00.913Z,20.84
2019-01-08T13:16:04.373Z,20.84
2019-01-08T13:21:07.832Z,20.83
2019-01-08T13:26:11.298Z,20.84
2019-01-08T13:31:14.758Z,20.82
2019-01-08T13:36:18.223Z,20.82
2019-01-08T13:41:21.691Z,20.81
2019-01-08T13:46:25.155Z,20.81
2019-01-08T13:51:28.618Z,20.80
2019-01-08T13:56:32.083Z,20.81
2019-01-08T14:01:35.551Z,20.80
2019-01-08T14:06:39.012Z,20.81
2019-01-08T14:11:42.478Z,20.81
2019-01-08T14:16:45.945Z,20.82
2019-01-08T14:21:49.472Z,20.75
2019-01-08T14:26:53.006Z,20.82
2019-01-08T14:31:56.470Z,20.83
2019-01-08T14:36:59.934Z,20.83
2019-01-08T14:42:03.639Z,20.83
2019-01-08T14:47:07.111Z,20.87
2019-01-08T14:52:10.579Z,20.89
2019-01-08T14:57:14.047Z,20.94
2019-01-08T15:07:34.506Z,21.02
2019-01-08T15:12:37.972Z,21.05
2019-01-08T15:17:41.434Z,21.08
2019-01-08T15:22:44.893Z,21.12
2019-01-08T15:27:48.352Z,21.15
2019-01-08T15:32:58.192Z,21.20
2019-01-08T15:37:57.011Z,21.21
2019-01-08T15:43:00.475Z,21.22
2019-01-08T15:48:05.282Z,21.24
2019-01-08T15:53:09.052Z,21.24
2019-01-08T15:58:12.531Z,21.27
2019-01-08T16:03:15.983Z,21.27
2019-01-08T16:08:19.451Z,21.30
2019-01-08T16:13:22.920Z,21.34
2019-01-08T16:18:26.558Z,21.34
2019-01-08T16:23:30.019Z,21.38
2019-01-08T16:28:33.500Z,21.40
2019-01-08T16:33:36.994Z,21.38
2019-01-08T16:38:40.473Z,21.38
2019-01-08T16:43:43.948Z,21.39
2019-01-08T16:48:47.428Z,21.40
2019-01-08T16:53:50.904Z,21.38
2019-01-08T16:58:54.388Z,21.38
2019-01-08T17:03:57.866Z,21.38
2019-01-08T17:09:01.349Z,21.38
2019-01-08T17:14:04.831Z,21.37
2019-01-08T17:19:08.309Z,21.37
2019-01-08T17:24:11.790Z,21.37
2019-01-08T17:29:15.275Z,21.37
2019-01-08T17:34:18.754Z,21.38
2019-01-08T17:39:22.235Z,21.38
2019-01-08T17:44:25.714Z,21.35
2019-01-08T17:49:29.197Z,21.35
2019-01-08T17:54:32.677Z,21.33
2019-01-08T17:59:36.160Z,21.33
2019-01-08T18:04:39.623Z,21.31
2019-01-08T18:09:43.087Z,21.30
2019-01-08T18:14:46.553Z,21.29
2019-01-08T18:19:50.014Z,21.28
2019-01-08T18:24:53.480Z,21.26
2019-01-08T18:29:56.947Z,21.27
2019-01-08T18:35:00.411Z,21.27
2019-01-08T18:40:05.214Z,21.27
2019-01-08T18:45:08.728Z,21.26
2019-01-08T18:50:12.153Z,21.26
2019-01-08T18:55:15.619Z,21.26
2019-01-08T19:00:20.260Z,21.24
2019-01-08T19:05:23.725Z,21.24
2019-01-08T19:10:27.194Z,21.23
2019-01-08T19:15:30.653Z,21.21
2019-01-08T19:20:34.118Z,21.20
2019-01-08T19:25:37.581Z,21.19
2019-01-08T19:30:41.046Z,21.20
2019-01-08T19:35:44.516Z,21.20
2019-01-08T19:40:47.981Z,21.21
2019-01-08T19:45:51.442Z,21.21
2019-01-08T19:50:55.078Z,21.20
2019-01-08T19:55:58.543Z,21.20
2019-01-08T20:01:02.010Z,21.20
2019-01-08T20:06:05.470Z,21.20
2019-01-08T20:11:08.934Z,21.20
2019-01-08T20:16:12.396Z,21.21
2019-01-08T20:21:15.861Z,21.18
2019-01-08T20:26:19.326Z,21.17
2019-01-08T20:31:22.791Z,21.15
2019-01-08T20:36:26.253Z,21.15
2019-01-08T20:41:29.714Z,21.13
2019-01-08T20:46:33.177Z,21.12
2019-01-08T20:51:36.642Z,21.11
2019-01-08T20:56:40.117Z,21.12
2019-01-08T21:01:43.585Z,21.12
2019-01-08T21:06:47.058Z,21.11
2019-01-08T21:11:50.520Z,21.09
2019-01-08T21:16:53.982Z,21.09
2019-01-08T21:21:57.451Z,21.09
2019-01-08T21:27:00.943Z,21.08
2019-01-08T21:32:04.806Z,21.07
2019-01-08T21:37:09.227Z,21.06
2019-01-08T21:42:12.708Z,21.05
2019-01-08T21:47:16.196Z,21.04
2019-01-08T21:52:19.684Z,21.04
2019-01-08T21:57:24.134Z,21.03
2019-01-08T22:02:27.789Z,21.03
2019-01-08T22:07:31.268Z,21.04
2019-01-08T22:12:34.796Z,21.05
2019-01-08T22:17:38.221Z,21.05
2019-01-08T22:22:41.704Z,21.04
2019-01-08T22:27:45.188Z,21.04
2019-01-08T22:32:48.665Z,21.02
2019-01-08T22:37:52.140Z,21.02
2019-01-08T22:42:55.618Z,21.01
2019-01-08T22:47:59.365Z,21.00
2019-01-08T22:53:02.847Z,20.99
2019-01-08T22:58:06.764Z,21.01
2019-01-08T23:03:10.299Z,20.98
2019-01-08T23:08:13.762Z,20.98
2019-01-08T23:13:17.226Z,20.97
2019-01-08T23:18:20.692Z,20.97
2019-01-08T23:23:24.165Z,20.98
2019-01-08T23:28:27.642Z,20.98
2019-01-08T23:33:31.102Z,20.98
2019-01-08T23:38:34.562Z,20.97
2019-01-08T23:43:38.041Z,20.95
2019-01-08T23:48:41.504Z,20.92
2019-01-08T23:53:45.943Z,20.90
2019-01-08T23:58:49.417Z,20.89
